Ana Sayfa
METAR-TAF:

METAR-TAF

Havaalanları :

Stavropol Şpakovskoye Havalimanı

Stavropol, Rusya

Enlem: 45-20N, Boylam: 042-00E, yükseklik: 453 m

Güncel hava durumu gözlemi

Rapor saat 17:30 UTC de 26 dakika önce yapıldı.
Rüzgar güney/güneybatıdan 6 kt
Sıcaklık 23°C
Nem 38%
Basınç 1013 hPa
Görüş mesafesi 10 km veya daha fazla
3300 ft yükseklikte parçalı bulutlu

METAR: URMT 181730Z 21003MPS 9999 SCT033 23/08 Q1013 R07/010070 NOSIG RMK QFE720

Saat: 20:56 (17:56 UTC)

Tahmin

Rapor saat 17:00 UTC de 56 dakika önce yapıldı.
Ayın 18'si saat 18 UTC'den ayın 19'si saat 03 UTC'ye kadar geçerli Tahmin
Rüzgar doğu/kuzeydoğudan 6 kt ve 16 kt'a kadar ani rüzgarlar
Görüş mesafesi 10 km veya daha fazla
2000 ft yükseklikte parçalı bulutlu

TAF: URMT 181700Z 1818/1903 07003G08MPS 9999 SCT020

4.000'den fazla havaalanı için hava durumu gözlemleri ve tahminleri (METAR ve TAF raporları).

Kullanılabilir istasyonlar harita üzerinde sarı ve kırmızı noktalarla gösterilir.

İstasyonun adını görmek için fareyi noktanın üzerinde gezdirin.

Sonrasında hava gözlem ve tahminlerini görmek için tıklayın.

Haritayı değiştirmek için: yaklaştırmak için siyah artı işaretli yeşil düğmeye ve uzaklaştırmak için de eksi işaretli düğmeye hızla tıklayın; bitişik haritalar için yeşil okları kullanın.


METAR-TAF: